createdAt,value
2022-07-29T00:02:03.449Z,9.40
2022-07-29T00:04:31.244Z,8.80
2022-07-29T00:06:59.819Z,8.77
2022-07-29T00:09:51.309Z,10.00
2022-07-29T00:12:26.235Z,9.10
2022-07-29T00:14:57.343Z,9.40
2022-07-29T00:17:28.780Z,10.30
2022-07-29T00:19:58.891Z,8.50
2022-07-29T00:22:28.076Z,10.05
2022-07-29T00:24:55.723Z,9.73
2022-07-29T00:27:23.482Z,9.20
2022-07-29T00:29:51.190Z,9.48
2022-07-29T00:32:18.677Z,8.85
2022-07-29T00:35:07.999Z,9.48
2022-07-29T00:37:44.058Z,9.95
2022-07-29T00:40:16.149Z,10.98
2022-07-29T00:42:51.882Z,10.60
2022-07-29T00:45:20.222Z,11.38
2022-07-29T00:47:49.861Z,11.30
2022-07-29T00:50:27.555Z,12.07
2022-07-29T00:53:04.533Z,11.88
2022-07-29T00:55:46.563Z,13.02
2022-07-29T00:58:15.075Z,12.63
2022-07-29T01:00:44.914Z,10.98
2022-07-29T01:03:13.731Z,13.70
2022-07-29T01:05:50.751Z,12.77
2022-07-29T01:08:21.303Z,12.02
2022-07-29T01:10:50.390Z,13.20
2022-07-29T01:13:20.126Z,13.60
2022-07-29T01:15:57.830Z,12.35
2022-07-29T01:18:28.254Z,13.50
2022-07-29T01:21:17.480Z,12.73
2022-07-29T01:24:18.416Z,13.02
2022-07-29T01:27:27.516Z,11.65
2022-07-29T01:30:00.850Z,11.70
2022-07-29T01:32:32.789Z,12.32
2022-07-29T01:35:22.227Z,11.98
2022-07-29T01:38:08.111Z,11.60
2022-07-29T01:40:44.023Z,12.35
2022-07-29T01:43:15.650Z,12.70
2022-07-29T01:45:54.298Z,11.05
2022-07-29T01:48:56.961Z,10.13
2022-07-29T01:51:44.144Z,10.35
2022-07-29T01:54:28.251Z,11.13
2022-07-29T01:57:00.747Z,10.85
2022-07-29T01:59:37.125Z,11.05
2022-07-29T02:02:13.729Z,11.63
2022-07-29T02:04:51.745Z,10.80
2022-07-29T02:07:23.426Z,9.98
2022-07-29T02:09:54.240Z,10.68
2022-07-29T02:12:28.092Z,10.03
2022-07-29T02:15:02.702Z,10.40
2022-07-29T02:17:57.558Z,10.98
2022-07-29T02:20:27.921Z,10.65
2022-07-29T02:22:58.192Z,9.38
2022-07-29T02:25:38.037Z,9.20
2022-07-29T02:28:08.643Z,10.05
2022-07-29T02:30:46.209Z,9.50
2022-07-29T02:33:17.973Z,8.55
2022-07-29T02:35:49.525Z,9.15
2022-07-29T02:38:52.967Z,8.23
2022-07-29T02:41:30.690Z,7.57
2022-07-29T02:44:11.518Z,8.85
2022-07-29T02:46:54.786Z,8.18
2022-07-29T02:53:32.929Z,8.00
2022-07-29T02:56:23.872Z,8.88
2022-07-29T02:59:10.555Z,8.95
2022-07-29T03:01:46.271Z,7.75
2022-07-29T03:04:19.255Z,7.95
2022-07-29T03:06:49.757Z,7.43
2022-07-29T03:09:31.140Z,8.10
2022-07-29T03:12:06.833Z,7.55
2022-07-29T03:14:37.080Z,6.72
2022-07-29T03:19:52.917Z,6.95
2022-07-29T03:22:23.234Z,7.03
2022-07-29T03:24:55.300Z,7.55
2022-07-29T03:27:25.951Z,8.35
2022-07-29T03:29:55.496Z,7.57
2022-07-29T03:32:25.352Z,7.82
2022-07-29T03:34:53.138Z,8.32
2022-07-29T03:37:26.330Z,9.23
2022-07-29T03:40:04.954Z,9.10
2022-07-29T03:42:40.226Z,8.13
2022-07-29T03:45:21.401Z,8.75
2022-07-29T03:48:00.559Z,8.57
2022-07-29T03:50:35.003Z,8.88
2022-07-29T03:53:08.291Z,8.25
2022-07-29T03:55:43.667Z,7.70
2022-07-29T03:58:15.381Z,7.85
2022-07-29T04:00:43.967Z,8.48
2022-07-29T04:03:16.991Z,7.85
2022-07-29T04:05:45.410Z,7.73
2022-07-29T04:08:14.088Z,8.55
2022-07-29T04:10:42.800Z,7.72
2022-07-29T04:13:12.963Z,7.30
2022-07-29T04:15:40.828Z,8.00
2022-07-29T04:18:08.602Z,8.45
2022-07-29T04:20:42.168Z,7.43
2022-07-29T04:23:13.123Z,7.13
2022-07-29T04:25:43.939Z,7.97
2022-07-29T04:28:13.307Z,7.88
2022-07-29T04:30:43.671Z,7.63
2022-07-29T04:33:13.696Z,7.97
2022-07-29T04:35:45.791Z,7.93
2022-07-29T04:38:24.608Z,7.88
2022-07-29T04:40:55.226Z,7.80
2022-07-29T04:43:29.179Z,8.07
2022-07-29T04:46:09.817Z,8.60
2022-07-29T04:48:40.821Z,8.50
2022-07-29T04:51:08.550Z,8.90
2022-07-29T04:53:41.131Z,8.77
2022-07-29T04:56:11.684Z,8.90
2022-07-29T04:58:39.522Z,7.90
2022-07-29T05:01:13.553Z,8.13
2022-07-29T05:04:10.071Z,7.05
2022-07-29T05:06:43.167Z,7.70
2022-07-29T05:09:14.412Z,7.95
2022-07-29T05:11:45.329Z,6.25
2022-07-29T05:14:14.369Z,6.65
2022-07-29T05:16:45.357Z,6.88
2022-07-29T05:19:17.386Z,6.90
2022-07-29T05:24:36.908Z,6.40
2022-07-29T05:27:09.929Z,6.65
2022-07-29T05:29:45.909Z,7.03
2022-07-29T05:32:15.438Z,6.82
2022-07-29T05:34:50.796Z,6.78
2022-07-29T05:37:21.440Z,6.32
2022-07-29T05:39:56.164Z,6.97
2022-07-29T05:42:28.842Z,6.55
2022-07-29T05:44:57.666Z,6.45
2022-07-29T05:47:33.412Z,6.90
2022-07-29T05:50:09.806Z,7.15
2022-07-29T05:52:37.123Z,6.30
2022-07-29T05:55:06.698Z,6.70
2022-07-29T05:57:34.381Z,6.88
2022-07-29T06:00:01.828Z,6.32
2022-07-29T06:02:40.308Z,6.03
2022-07-29T06:05:10.610Z,6.18
2022-07-29T06:07:50.703Z,6.40
2022-07-29T06:10:20.180Z,6.97
2022-07-29T06:12:51.744Z,6.78
2022-07-29T06:15:20.447Z,7.00
2022-07-29T06:17:59.941Z,5.47
2022-07-29T06:20:31.883Z,6.13
2022-07-29T06:23:01.018Z,5.70
2022-07-29T06:25:33.470Z,19.15
2022-07-29T06:28:02.596Z,7.88
2022-07-29T06:30:30.530Z,6.28
2022-07-29T06:32:58.014Z,5.35
2022-07-29T06:35:38.891Z,6.18
2022-07-29T06:38:31.245Z,5.45
2022-07-29T06:41:25.232Z,5.90
2022-07-29T06:43:55.377Z,6.32
2022-07-29T06:46:24.686Z,6.20
2022-07-29T06:48:53.363Z,7.97
2022-07-29T06:51:23.167Z,6.07
2022-07-29T06:54:00.373Z,5.72
2022-07-29T06:56:39.741Z,5.07
2022-07-29T06:59:10.206Z,7.32
2022-07-29T07:01:42.205Z,5.45
2022-07-29T07:04:12.002Z,6.10
2022-07-29T07:06:39.652Z,5.28
2022-07-29T07:09:07.339Z,5.50
2022-07-29T07:11:35.220Z,5.07
2022-07-29T07:14:04.089Z,5.53
2022-07-29T07:16:40.633Z,8.18
2022-07-29T07:19:08.681Z,5.25
2022-07-29T07:21:38.697Z,5.63
2022-07-29T07:24:06.805Z,5.22
2022-07-29T07:26:35.986Z,5.70
2022-07-29T07:29:05.765Z,5.53
2022-07-29T07:31:35.084Z,5.20
2022-07-29T07:34:02.714Z,5.20
2022-07-29T07:36:30.241Z,6.25
2022-07-29T07:38:57.612Z,5.15
2022-07-29T07:41:25.553Z,5.47
2022-07-29T07:43:53.154Z,5.32
2022-07-29T07:46:20.934Z,5.70
2022-07-29T07:48:51.231Z,4.97
2022-07-29T07:51:21.678Z,5.40
2022-07-29T07:53:53.634Z,5.90
2022-07-29T07:56:25.838Z,5.55
2022-07-29T07:58:53.513Z,5.60
2022-07-29T08:01:24.219Z,7.53
2022-07-29T08:03:52.323Z,5.80
2022-07-29T08:06:22.033Z,5.10
2022-07-29T08:08:51.895Z,5.40
2022-07-29T08:11:22.018Z,5.22
2022-07-29T08:13:49.779Z,6.43
2022-07-29T08:16:21.131Z,5.95
2022-07-29T08:18:49.778Z,5.38
2022-07-29T08:21:18.872Z,5.20
2022-07-29T08:24:12.850Z,8.05
2022-07-29T08:26:42.138Z,5.45
2022-07-29T08:29:10.428Z,6.25
2022-07-29T08:31:39.594Z,15.52
2022-07-29T08:34:13.212Z,7.05
2022-07-29T08:36:41.998Z,7.20
2022-07-29T08:39:11.672Z,6.05
2022-07-29T08:41:42.733Z,5.38
2022-07-29T08:44:30.940Z,6.32
2022-07-29T08:46:59.741Z,6.22
2022-07-29T08:49:31.389Z,6.00
2022-07-29T08:52:01.321Z,5.93
2022-07-29T08:54:31.620Z,5.95
2022-07-29T08:57:00.196Z,5.60
2022-07-29T08:59:29.496Z,6.90
2022-07-29T09:02:01.427Z,6.13
2022-07-29T09:04:37.231Z,8.95
2022-07-29T09:07:06.969Z,6.45
2022-07-29T09:09:35.263Z,6.15
2022-07-29T09:12:05.160Z,5.93
2022-07-29T09:14:34.115Z,5.95
2022-07-29T09:17:02.175Z,5.15
2022-07-29T09:19:51.141Z,5.75
2022-07-29T09:22:41.907Z,5.18
2022-07-29T09:25:13.104Z,6.90
2022-07-29T09:27:41.693Z,5.35
2022-07-29T09:30:11.823Z,5.63
2022-07-29T09:32:59.402Z,5.55
2022-07-29T09:35:28.256Z,5.75
2022-07-29T09:37:56.129Z,5.75
2022-07-29T09:40:30.592Z,6.68
2022-07-29T09:43:19.616Z,5.50
2022-07-29T09:45:50.424Z,4.90
2022-07-29T09:48:28.425Z,4.97
2022-07-29T09:50:56.165Z,5.60
2022-07-29T09:53:36.653Z,5.75
2022-07-29T09:56:06.308Z,5.43
2022-07-29T09:58:35.049Z,5.22
2022-07-29T10:01:02.968Z,5.55
2022-07-29T10:03:30.669Z,5.47
2022-07-29T10:06:16.872Z,5.68
2022-07-29T10:08:48.532Z,6.50
2022-07-29T10:11:20.195Z,5.55
2022-07-29T10:13:50.775Z,5.78
2022-07-29T10:16:19.287Z,5.97
2022-07-29T10:18:48.095Z,6.28
2022-07-29T10:21:34.766Z,6.97
2022-07-29T10:24:15.033Z,6.00
2022-07-29T10:26:45.201Z,6.80
2022-07-29T10:29:14.074Z,6.40
2022-07-29T10:31:53.447Z,7.00
2022-07-29T10:34:31.515Z,7.28
2022-07-29T10:37:21.238Z,6.38
2022-07-29T10:40:30.111Z,5.80
2022-07-29T10:43:11.159Z,6.10
2022-07-29T10:45:56.121Z,6.30
2022-07-29T10:48:26.061Z,6.47
2022-07-29T10:51:06.864Z,6.32
2022-07-29T10:53:49.189Z,6.70
2022-07-29T10:56:38.508Z,5.70
2022-07-29T10:59:23.537Z,6.28
2022-07-29T11:01:53.662Z,12.30
2022-07-29T11:04:44.634Z,6.20
2022-07-29T11:07:15.099Z,6.57
2022-07-29T11:09:43.901Z,6.70
2022-07-29T11:12:37.337Z,21.77
2022-07-29T11:15:09.815Z,6.40
2022-07-29T11:18:05.429Z,6.72
2022-07-29T11:20:45.945Z,6.93
2022-07-29T11:23:33.383Z,5.90
2022-07-29T11:26:12.851Z,7.25
2022-07-29T11:28:57.086Z,6.10
2022-07-29T11:31:47.680Z,6.78
2022-07-29T11:34:38.106Z,5.88
2022-07-29T11:37:14.901Z,6.70
2022-07-29T11:39:43.365Z,6.32
2022-07-29T11:42:32.577Z,6.32
2022-07-29T11:45:09.017Z,6.22
2022-07-29T11:48:31.581Z,6.22
2022-07-29T11:50:51.973Z,9.30
2022-07-29T11:53:24.963Z,6.03
2022-07-29T11:56:02.831Z,6.00
2022-07-29T11:58:38.469Z,6.55
2022-07-29T12:01:07.429Z,7.25
2022-07-29T12:03:36.972Z,6.60
2022-07-29T12:06:15.076Z,6.85
2022-07-29T12:08:44.308Z,6.53
2022-07-29T12:11:21.185Z,6.03
2022-07-29T12:13:51.830Z,7.28
2022-07-29T12:16:25.850Z,6.40
2022-07-29T12:18:59.499Z,5.70
2022-07-29T12:21:28.880Z,7.05
2022-07-29T12:24:03.365Z,6.78
2022-07-29T12:26:37.277Z,6.18
2022-07-29T12:29:11.207Z,6.65
2022-07-29T12:31:42.817Z,6.78
2022-07-29T12:34:16.959Z,6.22
2022-07-29T12:36:45.887Z,6.72
2022-07-29T12:39:16.639Z,6.30
2022-07-29T12:41:46.316Z,5.97
2022-07-29T12:44:15.622Z,6.93
2022-07-29T12:46:44.459Z,6.25
2022-07-29T12:49:22.966Z,7.38
2022-07-29T12:51:51.234Z,8.48
2022-07-29T12:54:20.023Z,6.80
2022-07-29T12:56:47.470Z,6.55
2022-07-29T12:59:24.694Z,6.95
2022-07-29T13:01:54.785Z,7.13
2022-07-29T13:04:28.465Z,6.30
2022-07-29T13:07:09.232Z,6.63
2022-07-29T13:09:46.657Z,6.35
2022-07-29T13:12:15.143Z,6.88
2022-07-29T13:14:48.525Z,9.23
2022-07-29T13:17:19.202Z,7.30
2022-07-29T13:19:50.760Z,7.72
2022-07-29T13:22:20.762Z,6.78
2022-07-29T13:24:50.559Z,6.75
2022-07-29T13:27:19.980Z,6.53
2022-07-29T13:29:48.314Z,6.28
2022-07-29T13:32:15.842Z,9.48
2022-07-29T13:34:43.269Z,6.47
2022-07-29T13:37:11.463Z,6.25
2022-07-29T13:39:39.116Z,6.72
2022-07-29T13:42:10.909Z,7.20
2022-07-29T13:44:39.261Z,6.97
2022-07-29T13:47:07.985Z,7.32
2022-07-29T13:49:36.086Z,7.35
2022-07-29T13:52:04.553Z,6.90
2022-07-29T13:54:32.207Z,8.10
2022-07-29T13:56:59.688Z,6.68
2022-07-29T13:59:27.543Z,9.32
2022-07-29T14:01:55.433Z,6.53
2022-07-29T14:04:26.955Z,6.25
2022-07-29T14:06:55.099Z,7.30
2022-07-29T14:09:24.802Z,6.30
2022-07-29T14:11:53.940Z,6.15
2022-07-29T14:14:21.578Z,7.38
2022-07-29T14:16:52.193Z,8.60
2022-07-29T14:19:19.935Z,6.55
2022-07-29T14:21:48.405Z,6.20
2022-07-29T14:24:23.114Z,6.00
2022-07-29T14:29:18.971Z,6.28
2022-07-29T14:31:49.898Z,6.88
2022-07-29T14:34:18.498Z,6.88
2022-07-29T14:36:47.032Z,9.32
2022-07-29T14:39:16.823Z,7.28
2022-07-29T14:41:44.815Z,6.88
2022-07-29T14:44:12.461Z,6.85
2022-07-29T14:46:40.175Z,6.82
2022-07-29T14:49:09.511Z,7.25
2022-07-29T14:51:42.689Z,8.02
2022-07-29T14:54:11.570Z,7.70
2022-07-29T14:56:46.726Z,7.38
2022-07-29T14:59:16.286Z,6.65
2022-07-29T15:01:46.269Z,7.15
2022-07-29T15:04:16.161Z,6.40
2022-07-29T15:06:44.186Z,6.47
2022-07-29T15:09:11.814Z,8.13
2022-07-29T15:11:41.109Z,6.65
2022-07-29T15:14:08.800Z,6.45
2022-07-29T15:16:43.500Z,6.32
2022-07-29T15:19:12.549Z,10.77
2022-07-29T15:21:41.662Z,14.60
2022-07-29T15:24:22.275Z,8.18
2022-07-29T15:26:49.800Z,6.70
2022-07-29T15:29:21.118Z,8.60
2022-07-29T15:31:52.592Z,6.97
2022-07-29T15:34:44.734Z,18.83
2022-07-29T15:37:22.509Z,6.60
2022-07-29T15:40:09.573Z,6.90
2022-07-29T15:42:38.899Z,6.82
2022-07-29T15:45:09.273Z,7.35
2022-07-29T15:47:38.655Z,7.25
2022-07-29T15:50:18.824Z,7.65
2022-07-29T15:53:09.669Z,8.65
2022-07-29T15:55:48.938Z,9.30
2022-07-29T15:58:34.571Z,7.95
2022-07-29T16:01:14.818Z,9.30
2022-07-29T16:04:01.601Z,8.98
2022-07-29T16:06:40.580Z,8.85
2022-07-29T16:09:08.139Z,8.20
2022-07-29T16:11:36.343Z,7.32
2022-07-29T16:14:23.390Z,8.57
2022-07-29T16:16:51.452Z,9.25
2022-07-29T16:19:24.791Z,8.20
2022-07-29T16:21:54.974Z,7.50
2022-07-29T16:24:29.995Z,8.85
2022-07-29T16:27:02.400Z,7.95
2022-07-29T16:29:31.654Z,8.35
2022-07-29T16:32:06.309Z,9.70
2022-07-29T16:34:35.293Z,7.85
2022-07-29T16:37:35.961Z,8.65
2022-07-29T16:40:14.212Z,7.93
2022-07-29T16:42:46.935Z,8.63
2022-07-29T16:45:21.659Z,9.15
2022-07-29T16:47:50.237Z,8.15
2022-07-29T16:50:18.069Z,7.60
2022-07-29T16:52:45.629Z,8.60
2022-07-29T16:55:14.626Z,7.68
2022-07-29T16:58:00.154Z,8.73
2022-07-29T17:03:00.733Z,8.55
2022-07-29T17:05:53.400Z,7.70
2022-07-29T17:08:24.068Z,11.45
2022-07-29T17:10:51.526Z,8.65
2022-07-29T17:13:18.968Z,10.02
2022-07-29T17:15:46.665Z,8.98
2022-07-29T17:18:14.057Z,10.15
2022-07-29T17:20:48.480Z,10.15
2022-07-29T17:25:59.870Z,10.13
2022-07-29T17:28:27.634Z,9.98
2022-07-29T17:30:57.113Z,9.40
2022-07-29T17:33:28.919Z,10.43
2022-07-29T17:36:18.595Z,10.85
2022-07-29T17:39:04.494Z,9.38
2022-07-29T17:41:35.142Z,9.85
2022-07-29T17:44:05.587Z,9.82
2022-07-29T17:46:43.668Z,9.95
2022-07-29T17:49:12.306Z,10.38
2022-07-29T17:55:17.527Z,11.88
2022-07-29T17:57:48.480Z,13.98
2022-07-29T18:00:18.648Z,17.65
2022-07-29T18:03:12.078Z,20.15
2022-07-29T18:05:39.418Z,23.77
2022-07-29T18:08:06.770Z,25.95
2022-07-29T18:10:34.286Z,25.30
2022-07-29T18:13:02.915Z,27.45
2022-07-29T18:15:30.955Z,29.17
2022-07-29T18:17:58.375Z,24.75
2022-07-29T18:20:28.759Z,21.00
2022-07-29T18:22:56.290Z,19.08
2022-07-29T18:25:25.905Z,17.23
2022-07-29T18:27:56.155Z,15.40
2022-07-29T18:30:25.996Z,13.88
2022-07-29T18:33:19.201Z,13.57
2022-07-29T18:35:42.327Z,13.35
2022-07-29T18:38:09.679Z,14.23
2022-07-29T18:40:40.233Z,17.13
2022-07-29T18:43:09.484Z,22.60
2022-07-29T18:45:36.765Z,18.17
2022-07-29T18:48:12.831Z,17.23
2022-07-29T18:50:41.961Z,19.02
2022-07-29T18:53:09.355Z,22.52
2022-07-29T18:55:36.647Z,41.92
2022-07-29T18:58:04.258Z,24.25
2022-07-29T19:00:31.928Z,25.73
2022-07-29T19:03:00.288Z,24.00
2022-07-29T19:05:27.951Z,20.25
2022-07-29T19:07:56.242Z,18.77
2022-07-29T19:10:23.615Z,18.85
2022-07-29T19:12:51.177Z,25.10
2022-07-29T19:15:20.754Z,29.27
2022-07-29T19:17:51.990Z,23.95
2022-07-29T19:20:22.960Z,28.48
2022-07-29T19:23:10.946Z,27.23
2022-07-29T19:25:53.146Z,39.22
2022-07-29T19:28:25.366Z,27.67
2022-07-29T19:30:52.992Z,26.58
2022-07-29T19:33:21.022Z,31.05
2022-07-29T19:35:54.364Z,22.25
2022-07-29T19:38:23.233Z,19.23
2022-07-29T19:41:09.805Z,23.73
2022-07-29T19:43:49.886Z,23.80
2022-07-29T19:46:25.827Z,43.85
2022-07-29T19:48:57.866Z,48.10
2022-07-29T19:51:30.949Z,19.88
2022-07-29T19:54:01.063Z,14.02
2022-07-29T19:56:30.210Z,11.65
2022-07-29T19:58:58.124Z,11.95
2022-07-29T20:01:26.193Z,11.45
2022-07-29T20:03:54.071Z,10.75
2022-07-29T20:06:21.361Z,12.25
2022-07-29T20:08:49.081Z,11.15
2022-07-29T20:11:17.121Z,11.45
2022-07-29T20:13:46.785Z,11.25
2022-07-29T20:16:23.316Z,11.52
2022-07-29T20:18:54.180Z,11.75
2022-07-29T20:21:27.023Z,13.05
2022-07-29T20:24:02.476Z,13.45
2022-07-29T20:26:39.055Z,14.77
2022-07-29T20:29:07.176Z,13.95
2022-07-29T20:31:40.335Z,14.32
2022-07-29T20:34:15.648Z,15.02
2022-07-29T20:36:46.361Z,15.65
2022-07-29T20:39:21.415Z,14.52
2022-07-29T20:41:56.505Z,19.58
2022-07-29T20:45:03.433Z,21.83
2022-07-29T20:48:02.872Z,20.42
2022-07-29T20:50:34.948Z,16.70
2022-07-29T20:53:07.224Z,17.38
2022-07-29T20:55:35.360Z,15.40
2022-07-29T20:58:03.319Z,17.17
2022-07-29T21:00:32.113Z,19.95
2022-07-29T21:03:10.179Z,17.38
2022-07-29T21:06:20.376Z,18.02
2022-07-29T21:09:28.292Z,16.10
2022-07-29T21:12:00.567Z,18.13
2022-07-29T21:14:47.823Z,16.27
2022-07-29T21:17:16.974Z,15.35
2022-07-29T21:19:44.531Z,14.82
2022-07-29T21:22:12.665Z,12.90
2022-07-29T21:24:41.399Z,12.68
2022-07-29T21:27:28.396Z,13.23
2022-07-29T21:30:00.097Z,12.75
2022-07-29T21:32:30.315Z,12.55
2022-07-29T21:35:00.307Z,14.05
2022-07-29T21:37:28.773Z,14.65
2022-07-29T21:39:59.668Z,14.30
2022-07-29T21:42:35.541Z,18.13
2022-07-29T21:45:05.842Z,14.38
2022-07-29T21:47:41.205Z,13.82
2022-07-29T21:50:18.775Z,12.88
2022-07-29T21:56:00.483Z,12.82
2022-07-29T21:58:46.454Z,12.63
2022-07-29T22:01:39.200Z,14.35
2022-07-29T22:07:19.016Z,67.40
2022-07-29T22:09:58.422Z,33.40
2022-07-29T22:12:29.323Z,30.27
2022-07-29T22:20:03.251Z,19.08
2022-07-29T22:22:54.928Z,17.38
2022-07-29T22:25:29.375Z,29.20
2022-07-29T22:27:57.433Z,26.23
2022-07-29T22:30:29.931Z,27.08
2022-07-29T22:33:04.872Z,31.27
2022-07-29T22:35:36.705Z,35.65
2022-07-29T22:38:04.277Z,33.80
2022-07-29T22:40:36.089Z,23.98
2022-07-29T22:43:06.754Z,18.83
2022-07-29T22:45:41.665Z,16.00
2022-07-29T22:48:09.366Z,19.10
2022-07-29T22:50:37.233Z,16.33
2022-07-29T22:53:04.514Z,19.35
2022-07-29T22:55:32.082Z,18.92
2022-07-29T22:58:03.540Z,15.75
2022-07-29T23:00:32.866Z,15.90
2022-07-29T23:06:54.323Z,13.98
2022-07-29T23:09:21.871Z,28.23
2022-07-29T23:11:50.418Z,20.48
2022-07-29T23:14:57.036Z,18.45
2022-07-29T23:18:26.636Z,16.38
2022-07-29T23:21:01.212Z,15.73
2022-07-29T23:23:32.509Z,15.15
2022-07-29T23:26:02.375Z,15.93
2022-07-29T23:28:32.283Z,15.88
2022-07-29T23:30:59.724Z,14.63
2022-07-29T23:33:27.498Z,13.98
2022-07-29T23:35:55.033Z,15.48
2022-07-29T23:38:26.656Z,15.55
2022-07-29T23:41:03.197Z,16.98
2022-07-29T23:43:59.780Z,17.70
2022-07-29T23:46:40.350Z,15.07
2022-07-29T23:49:18.598Z,14.52
2022-07-29T23:55:37.431Z,12.52
2022-07-29T23:58:41.864Z,14.15
